Terminal Aerodrome Forecast
Issued by NWS Omaha/Valley, NE

Home | Current Version | Previous Version | Text Only | Print | Product List | Glossary On
Versions: 1 2 3 4 5 6 7 8 9 10 11 12 13 14 15 16 17 18 19 20 21 22 23 24 25 26 27 28 29 30 31 32 33 34 35 36 37 38
000
FTUS43 KOAX 130520
TAFOMA
TAF
KOMA 130520Z 1306/1406 35007KT P6SM FEW050 SCT250
     FM130800 VRB04KT P6SM SCT250
      TEMPO 1310/1313 5SM BR
     FM131500 30006KT P6SM SCT250
     FM131800 31008KT P6SM BKN090 PROB30 1322/1402 5SM -SHRA OVC040=

USA.gov is the U.S. government's official web portal to all federal, state and local government web resources and services.